sensor_id;sensor_type;location;lat;lon;timestamp;temperature;humidity
36442;DHT22;64346;50.820;16.274;2023-08-17T00:02:16;19.80;99.90
36442;DHT22;64346;50.820;16.274;2023-08-17T00:04:44;19.90;99.90
36442;DHT22;64346;50.820;16.274;2023-08-17T00:07:13;19.90;99.90
36442;DHT22;64346;50.820;16.274;2023-08-17T00:09:41;20.00;99.90
36442;DHT22;64346;50.820;16.274;2023-08-17T00:12:08;20.10;99.90
36442;DHT22;64346;50.820;16.274;2023-08-17T00:14:35;20.10;99.90
36442;DHT22;64346;50.820;16.274;2023-08-17T00:17:03;20.10;99.90
36442;DHT22;64346;50.820;16.274;2023-08-17T00:19:30;19.90;99.90
36442;DHT22;64346;50.820;16.274;2023-08-17T00:21:57;19.70;99.90
36442;DHT22;64346;50.820;16.274;2023-08-17T00:24:27;19.50;99.90
36442;DHT22;64346;50.820;16.274;2023-08-17T00:26:54;19.40;99.90
36442;DHT22;64346;50.820;16.274;2023-08-17T00:29:22;19.30;99.90
36442;DHT22;64346;50.820;16.274;2023-08-17T00:31:49;19.40;99.90
36442;DHT22;64346;50.820;16.274;2023-08-17T00:34:17;19.50;99.90
36442;DHT22;64346;50.820;16.274;2023-08-17T00:36:47;19.60;99.90
36442;DHT22;64346;50.820;16.274;2023-08-17T00:39:16;19.70;99.90
36442;DHT22;64346;50.820;16.274;2023-08-17T00:41:44;19.80;99.90
36442;DHT22;64346;50.820;16.274;2023-08-17T00:44:11;19.80;99.90
36442;DHT22;64346;50.820;16.274;2023-08-17T00:46:40;19.90;99.90
36442;DHT22;64346;50.820;16.274;2023-08-17T00:49:08;19.90;99.90
36442;DHT22;64346;50.820;16.274;2023-08-17T00:51:39;19.90;99.90
36442;DHT22;64346;50.820;16.274;2023-08-17T00:54:10;19.90;99.90
36442;DHT22;64346;50.820;16.274;2023-08-17T00:56:40;20.00;99.90
36442;DHT22;64346;50.820;16.274;2023-08-17T00:59:07;20.10;99.90
36442;DHT22;64346;50.820;16.274;2023-08-17T01:01:35;20.10;99.90
36442;DHT22;64346;50.820;16.274;2023-08-17T01:04:05;20.00;99.90
36442;DHT22;64346;50.820;16.274;2023-08-17T01:06:34;20.00;99.90
36442;DHT22;64346;50.820;16.274;2023-08-17T01:09:05;19.90;99.90
36442;DHT22;64346;50.820;16.274;2023-08-17T01:11:37;19.90;99.90
36442;DHT22;64346;50.820;16.274;2023-08-17T01:16:52;20.00;99.90
36442;DHT22;64346;50.820;16.274;2023-08-17T01:19:29;20.10;99.90
36442;DHT22;64346;50.820;16.274;2023-08-17T01:22:08;20.10;99.90
36442;DHT22;64346;50.820;16.274;2023-08-17T01:24:35;20.00;99.90
36442;DHT22;64346;50.820;16.274;2023-08-17T01:27:03;20.00;99.90
36442;DHT22;64346;50.820;16.274;2023-08-17T01:29:30;20.00;99.90
36442;DHT22;64346;50.820;16.274;2023-08-17T01:34:47;20.00;99.90
36442;DHT22;64346;50.820;16.274;2023-08-17T01:37:21;20.10;99.90
36442;DHT22;64346;50.820;16.274;2023-08-17T01:39:52;20.20;99.90
36442;DHT22;64346;50.820;16.274;2023-08-17T01:42:22;20.20;99.90
36442;DHT22;64346;50.820;16.274;2023-08-17T01:44:50;20.30;99.90
36442;DHT22;64346;50.820;16.274;2023-08-17T01:47:23;20.30;99.90
36442;DHT22;64346;50.820;16.274;2023-08-17T01:49:53;20.40;99.90
36442;DHT22;64346;50.820;16.274;2023-08-17T01:52:20;20.40;99.90
36442;DHT22;64346;50.820;16.274;2023-08-17T01:54:48;20.40;99.90
36442;DHT22;64346;50.820;16.274;2023-08-17T01:57:15;20.50;99.90
36442;DHT22;64346;50.820;16.274;2023-08-17T01:59:43;20.40;99.90
36442;DHT22;64346;50.820;16.274;2023-08-17T02:02:10;20.40;99.90
36442;DHT22;64346;50.820;16.274;2023-08-17T02:04:39;20.30;99.90
36442;DHT22;64346;50.820;16.274;2023-08-17T02:07:09;20.30;99.90
36442;DHT22;64346;50.820;16.274;2023-08-17T02:09:39;20.20;99.90
36442;DHT22;64346;50.820;16.274;2023-08-17T02:12:06;20.20;99.90
36442;DHT22;64346;50.820;16.274;2023-08-17T02:14:34;20.30;99.90
36442;DHT22;64346;50.820;16.274;2023-08-17T02:17:01;20.30;99.90
36442;DHT22;64346;50.820;16.274;2023-08-17T02:19:31;20.30;99.90
36442;DHT22;64346;50.820;16.274;2023-08-17T02:21:58;20.30;99.90
36442;DHT22;64346;50.820;16.274;2023-08-17T02:24:26;20.30;99.90
36442;DHT22;64346;50.820;16.274;2023-08-17T02:26:53;20.30;99.90
36442;DHT22;64346;50.820;16.274;2023-08-17T02:29:23;20.40;99.90
36442;DHT22;64346;50.820;16.274;2023-08-17T02:31:50;20.40;99.90
36442;DHT22;64346;50.820;16.274;2023-08-17T02:34:20;20.50;99.90
36442;DHT22;64346;50.820;16.274;2023-08-17T02:36:47;20.50;99.90
36442;DHT22;64346;50.820;16.274;2023-08-17T02:39:17;20.40;99.90
36442;DHT22;64346;50.820;16.274;2023-08-17T02:41:44;20.30;99.90
36442;DHT22;64346;50.820;16.274;2023-08-17T02:44:16;20.20;99.90
36442;DHT22;64346;50.820;16.274;2023-08-17T02:46:43;20.10;99.90
36442;DHT22;64346;50.820;16.274;2023-08-17T02:49:11;20.00;99.90
36442;DHT22;64346;50.820;16.274;2023-08-17T02:51:38;19.90;99.90
36442;DHT22;64346;50.820;16.274;2023-08-17T02:54:05;19.80;99.90
36442;DHT22;64346;50.820;16.274;2023-08-17T02:56:32;19.70;99.90
36442;DHT22;64346;50.820;16.274;2023-08-17T02:59:02;19.60;99.90
36442;DHT22;64346;50.820;16.274;2023-08-17T03:01:29;19.60;99.90
36442;DHT22;64346;50.820;16.274;2023-08-17T03:03:59;19.50;99.90
36442;DHT22;64346;50.820;16.274;2023-08-17T03:06:31;19.40;99.90
36442;DHT22;64346;50.820;16.274;2023-08-17T03:08:58;19.40;99.90
36442;DHT22;64346;50.820;16.274;2023-08-17T03:11:25;19.40;99.90
36442;DHT22;64346;50.820;16.274;2023-08-17T03:13:57;19.30;99.90
36442;DHT22;64346;50.820;16.274;2023-08-17T03:16:27;19.20;99.90
36442;DHT22;64346;50.820;16.274;2023-08-17T03:18:54;19.10;99.90
36442;DHT22;64346;50.820;16.274;2023-08-17T03:21:22;19.10;99.90
36442;DHT22;64346;50.820;16.274;2023-08-17T03:23:52;19.10;99.90
36442;DHT22;64346;50.820;16.274;2023-08-17T03:26:19;19.10;99.90
36442;DHT22;64346;50.820;16.274;2023-08-17T03:28:47;19.10;99.90
36442;DHT22;64346;50.820;16.274;2023-08-17T03:31:14;19.10;99.90
36442;DHT22;64346;50.820;16.274;2023-08-17T03:33:41;19.20;99.90
36442;DHT22;64346;50.820;16.274;2023-08-17T03:36:13;19.20;99.90
36442;DHT22;64346;50.820;16.274;2023-08-17T03:38:43;19.20;99.90
36442;DHT22;64346;50.820;16.274;2023-08-17T03:41:10;19.30;99.90
36442;DHT22;64346;50.820;16.274;2023-08-17T03:43:40;19.30;99.90
36442;DHT22;64346;50.820;16.274;2023-08-17T03:46:07;19.50;99.90
36442;DHT22;64346;50.820;16.274;2023-08-17T03:48:35;19.60;99.90
36442;DHT22;64346;50.820;16.274;2023-08-17T03:51:06;19.60;99.90
36442;DHT22;64346;50.820;16.274;2023-08-17T03:53:34;19.70;99.90
36442;DHT22;64346;50.820;16.274;2023-08-17T03:56:01;19.80;99.90
36442;DHT22;64346;50.820;16.274;2023-08-17T03:58:31;19.80;99.90
36442;DHT22;64346;50.820;16.274;2023-08-17T04:01:00;19.90;99.90
36442;DHT22;64346;50.820;16.274;2023-08-17T04:03:28;20.00;99.90
36442;DHT22;64346;50.820;16.274;2023-08-17T04:05:55;20.10;99.90
36442;DHT22;64346;50.820;16.274;2023-08-17T04:08:25;20.20;99.90
36442;DHT22;64346;50.820;16.274;2023-08-17T04:10:52;20.30;99.90
36442;DHT22;64346;50.820;16.274;2023-08-17T04:13:19;20.40;99.90
36442;DHT22;64346;50.820;16.274;2023-08-17T04:15:47;20.50;99.90
36442;DHT22;64346;50.820;16.274;2023-08-17T04:18:16;20.60;99.90
36442;DHT22;64346;50.820;16.274;2023-08-17T04:20:44;20.60;99.90
36442;DHT22;64346;50.820;16.274;2023-08-17T04:23:13;20.60;99.90
36442;DHT22;64346;50.820;16.274;2023-08-17T04:25:41;20.50;99.90
36442;DHT22;64346;50.820;16.274;2023-08-17T04:28:09;20.40;99.90
36442;DHT22;64346;50.820;16.274;2023-08-17T04:30:38;20.20;99.90
36442;DHT22;64346;50.820;16.274;2023-08-17T04:33:05;20.30;99.90
36442;DHT22;64346;50.820;16.274;2023-08-17T04:35:32;20.30;99.90
36442;DHT22;64346;50.820;16.274;2023-08-17T04:37:59;20.30;99.90
36442;DHT22;64346;50.820;16.274;2023-08-17T04:40:27;20.30;99.90
36442;DHT22;64346;50.820;16.274;2023-08-17T04:42:56;20.30;99.90
36442;DHT22;64346;50.820;16.274;2023-08-17T04:45:24;20.30;99.90
36442;DHT22;64346;50.820;16.274;2023-08-17T04:47:51;20.40;99.90
36442;DHT22;64346;50.820;16.274;2023-08-17T04:50:18;20.50;99.90
36442;DHT22;64346;50.820;16.274;2023-08-17T04:52:46;20.50;99.90
36442;DHT22;64346;50.820;16.274;2023-08-17T04:55:13;20.50;99.90
36442;DHT22;64346;50.820;16.274;2023-08-17T04:57:41;20.70;99.90
36442;DHT22;64346;50.820;16.274;2023-08-17T05:00:11;20.70;99.90
36442;DHT22;64346;50.820;16.274;2023-08-17T05:02:38;21.00;99.90
36442;DHT22;64346;50.820;16.274;2023-08-17T05:05:06;21.10;99.90
36442;DHT22;64346;50.820;16.274;2023-08-17T05:07:36;21.30;99.90
36442;DHT22;64346;50.820;16.274;2023-08-17T05:10:04;21.70;99.90
36442;DHT22;64346;50.820;16.274;2023-08-17T05:12:31;22.20;99.90
36442;DHT22;64346;50.820;16.274;2023-08-17T05:15:01;22.50;99.90
36442;DHT22;64346;50.820;16.274;2023-08-17T05:17:30;22.50;99.90
36442;DHT22;64346;50.820;16.274;2023-08-17T05:19:58;23.00;99.90
36442;DHT22;64346;50.820;16.274;2023-08-17T05:22:25;23.90;99.90
36442;DHT22;64346;50.820;16.274;2023-08-17T05:24:52;25.00;99.90
36442;DHT22;64346;50.820;16.274;2023-08-17T05:27:20;26.20;99.90
36442;DHT22;64346;50.820;16.274;2023-08-17T05:29:47;27.20;99.90
36442;DHT22;64346;50.820;16.274;2023-08-17T05:32:15;28.00;99.90
36442;DHT22;64346;50.820;16.274;2023-08-17T05:34:42;28.10;99.90
36442;DHT22;64346;50.820;16.274;2023-08-17T05:37:09;28.40;99.90
36442;DHT22;64346;50.820;16.274;2023-08-17T05:39:39;29.40;99.90
36442;DHT22;64346;50.820;16.274;2023-08-17T05:42:07;30.40;99.90
36442;DHT22;64346;50.820;16.274;2023-08-17T05:44:34;32.20;99.90
36442;DHT22;64346;50.820;16.274;2023-08-17T05:47:01;33.50;95.20
36442;DHT22;64346;50.820;16.274;2023-08-17T05:49:29;34.50;92.90
36442;DHT22;64346;50.820;16.274;2023-08-17T05:51:58;35.50;90.30
36442;DHT22;64346;50.820;16.274;2023-08-17T05:54:25;36.60;85.80
36442;DHT22;64346;50.820;16.274;2023-08-17T05:56:52;37.40;81.40
36442;DHT22;64346;50.820;16.274;2023-08-17T05:59:22;37.90;77.80
36442;DHT22;64346;50.820;16.274;2023-08-17T06:01:49;38.00;76.50
36442;DHT22;64346;50.820;16.274;2023-08-17T06:04:19;38.20;73.90
36442;DHT22;64346;50.820;16.274;2023-08-17T06:06:47;38.80;72.40
36442;DHT22;64346;50.820;16.274;2023-08-17T06:09:14;39.80;69.60
36442;DHT22;64346;50.820;16.274;2023-08-17T06:11:44;40.70;67.70
36442;DHT22;64346;50.820;16.274;2023-08-17T06:14:14;41.80;65.90
36442;DHT22;64346;50.820;16.274;2023-08-17T06:16:41;42.70;63.30
36442;DHT22;64346;50.820;16.274;2023-08-17T06:19:08;43.60;60.90
36442;DHT22;64346;50.820;16.274;2023-08-17T06:21:38;43.90;59.30
36442;DHT22;64346;50.820;16.274;2023-08-17T06:24:06;44.20;57.80
36442;DHT22;64346;50.820;16.274;2023-08-17T06:26:33;44.60;57.50
36442;DHT22;64346;50.820;16.274;2023-08-17T06:29:00;45.10;56.00
36442;DHT22;64346;50.820;16.274;2023-08-17T06:31:32;45.50;55.10
36442;DHT22;64346;50.820;16.274;2023-08-17T06:34:00;45.80;54.00
36442;DHT22;64346;50.820;16.274;2023-08-17T06:36:31;46.20;53.20
36442;DHT22;64346;50.820;16.274;2023-08-17T06:38:59;45.30;52.20
36442;DHT22;64346;50.820;16.274;2023-08-17T06:41:26;45.00;52.20
36442;DHT22;64346;50.820;16.274;2023-08-17T06:43:56;44.90;52.40
36442;DHT22;64346;50.820;16.274;2023-08-17T06:46:24;45.00;52.10
36442;DHT22;64346;50.820;16.274;2023-08-17T06:48:51;45.30;51.40
36442;DHT22;64346;50.820;16.274;2023-08-17T06:51:19;45.20;50.20
36442;DHT22;64346;50.820;16.274;2023-08-17T06:53:46;44.30;50.70
36442;DHT22;64346;50.820;16.274;2023-08-17T06:56:16;43.90;51.80
36442;DHT22;64346;50.820;16.274;2023-08-17T06:58:46;43.00;52.30
36442;DHT22;64346;50.820;16.274;2023-08-17T07:01:13;42.80;52.20
36442;DHT22;64346;50.820;16.274;2023-08-17T07:03:40;42.70;52.80
36442;DHT22;64346;50.820;16.274;2023-08-17T07:06:10;42.30;53.20
36442;DHT22;64346;50.820;16.274;2023-08-17T07:08:37;41.30;53.60
36442;DHT22;64346;50.820;16.274;2023-08-17T07:11:07;39.60;55.50
36442;DHT22;64346;50.820;16.274;2023-08-17T07:13:37;37.60;58.60
36442;DHT22;64346;50.820;16.274;2023-08-17T07:16:07;36.50;60.80
36442;DHT22;64346;50.820;16.274;2023-08-17T07:18:37;36.60;61.40
36442;DHT22;64346;50.820;16.274;2023-08-17T07:21:09;37.80;60.00
36442;DHT22;64346;50.820;16.274;2023-08-17T07:23:36;39.20;58.60
36442;DHT22;64346;50.820;16.274;2023-08-17T07:26:04;40.70;56.40
36442;DHT22;64346;50.820;16.274;2023-08-17T07:28:31;40.60;56.50
36442;DHT22;64346;50.820;16.274;2023-08-17T07:30:58;39.40;57.30
36442;DHT22;64346;50.820;16.274;2023-08-17T07:33:25;37.50;59.40
36442;DHT22;64346;50.820;16.274;2023-08-17T07:35:53;35.90;61.90
36442;DHT22;64346;50.820;16.274;2023-08-17T07:38:20;34.10;63.70
36442;DHT22;64346;50.820;16.274;2023-08-17T07:40:52;32.30;67.30
36442;DHT22;64346;50.820;16.274;2023-08-17T07:43:19;31.00;70.30
36442;DHT22;64346;50.820;16.274;2023-08-17T07:45:56;30.00;72.90
36442;DHT22;64346;50.820;16.274;2023-08-17T07:48:26;29.30;75.30
36442;DHT22;64346;50.820;16.274;2023-08-17T07:50:55;28.80;77.60
36442;DHT22;64346;50.820;16.274;2023-08-17T07:53:23;28.40;80.30
36442;DHT22;64346;50.820;16.274;2023-08-17T07:55:50;28.10;82.00
36442;DHT22;64346;50.820;16.274;2023-08-17T07:58:21;27.90;84.70
36442;DHT22;64346;50.820;16.274;2023-08-17T08:00:53;27.40;88.70
36442;DHT22;64346;50.820;16.274;2023-08-17T08:03:23;27.70;90.60
36442;DHT22;64346;50.820;16.274;2023-08-17T08:05:50;29.10;88.30
36442;DHT22;64346;50.820;16.274;2023-08-17T08:08:18;31.10;81.70
36442;DHT22;64346;50.820;16.274;2023-08-17T08:10:46;32.70;78.30
36442;DHT22;64346;50.820;16.274;2023-08-17T08:13:13;34.60;74.10
36442;DHT22;64346;50.820;16.274;2023-08-17T08:15:42;36.50;69.60
36442;DHT22;64346;50.820;16.274;2023-08-17T08:18:09;36.60;66.90
36442;DHT22;64346;50.820;16.274;2023-08-17T08:20:40;37.10;67.10
36442;DHT22;64346;50.820;16.274;2023-08-17T08:23:07;39.40;63.10
36442;DHT22;64346;50.820;16.274;2023-08-17T08:25:37;39.50;61.10
36442;DHT22;64346;50.820;16.274;2023-08-17T08:28:07;39.50;61.10
36442;DHT22;64346;50.820;16.274;2023-08-17T08:30:36;39.20;61.00
36442;DHT22;64346;50.820;16.274;2023-08-17T08:33:04;39.80;60.30
36442;DHT22;64346;50.820;16.274;2023-08-17T08:35:31;40.80;59.50
36442;DHT22;64346;50.820;16.274;2023-08-17T08:38:01;42.00;57.70
36442;DHT22;64346;50.820;16.274;2023-08-17T08:40:31;43.00;56.80
36442;DHT22;64346;50.820;16.274;2023-08-17T08:42:59;43.20;56.00
36442;DHT22;64346;50.820;16.274;2023-08-17T08:45:29;43.70;55.60
36442;DHT22;64346;50.820;16.274;2023-08-17T08:47:57;44.60;54.00
36442;DHT22;64346;50.820;16.274;2023-08-17T08:50:29;43.80;54.30
36442;DHT22;64346;50.820;16.274;2023-08-17T08:53:08;43.40;54.10
36442;DHT22;64346;50.820;16.274;2023-08-17T08:55:39;42.30;54.80
36442;DHT22;64346;50.820;16.274;2023-08-17T08:58:14;41.30;55.70
36442;DHT22;64346;50.820;16.274;2023-08-17T09:00:46;39.50;58.00
36442;DHT22;64346;50.820;16.274;2023-08-17T09:03:16;40.30;58.50
36442;DHT22;64346;50.820;16.274;2023-08-17T09:05:47;41.40;57.20
36442;DHT22;64346;50.820;16.274;2023-08-17T09:08:20;40.10;58.50
36442;DHT22;64346;50.820;16.274;2023-08-17T09:10:52;38.50;60.10
36442;DHT22;64346;50.820;16.274;2023-08-17T09:13:22;37.20;62.00
36442;DHT22;64346;50.820;16.274;2023-08-17T09:15:49;35.70;64.40
36442;DHT22;64346;50.820;16.274;2023-08-17T09:18:21;34.70;66.50
36442;DHT22;64346;50.820;16.274;2023-08-17T09:20:51;34.00;68.10
36442;DHT22;64346;50.820;16.274;2023-08-17T09:23:21;33.30;69.70
36442;DHT22;64346;50.820;16.274;2023-08-17T09:25:50;32.80;70.90
36442;DHT22;64346;50.820;16.274;2023-08-17T09:28:19;32.30;72.70
36442;DHT22;64346;50.820;16.274;2023-08-17T09:30:51;31.70;74.60
36442;DHT22;64346;50.820;16.274;2023-08-17T09:33:22;31.30;76.30
36442;DHT22;64346;50.820;16.274;2023-08-17T09:35:53;30.80;77.60
36442;DHT22;64346;50.820;16.274;2023-08-17T09:38:25;30.20;81.20
36442;DHT22;64346;50.820;16.274;2023-08-17T09:40:53;29.80;84.50
36442;DHT22;64346;50.820;16.274;2023-08-17T09:43:20;29.50;87.20
36442;DHT22;64346;50.820;16.274;2023-08-17T09:45:48;29.30;89.60
36442;DHT22;64346;50.820;16.274;2023-08-17T09:48:19;29.10;91.10
36442;DHT22;64346;50.820;16.274;2023-08-17T09:50:48;28.90;92.30
36442;DHT22;64346;50.820;16.274;2023-08-17T09:53:21;28.60;93.50
36442;DHT22;64346;50.820;16.274;2023-08-17T09:55:48;28.40;95.30
36442;DHT22;64346;50.820;16.274;2023-08-17T09:58:17;28.20;97.00
36442;DHT22;64346;50.820;16.274;2023-08-17T10:00:48;28.00;99.10
36442;DHT22;64346;50.820;16.274;2023-08-17T10:03:18;27.90;99.80
36442;DHT22;64346;50.820;16.274;2023-08-17T10:05:54;27.70;99.90
36442;DHT22;64346;50.820;16.274;2023-08-17T10:08:23;27.60;99.90
36442;DHT22;64346;50.820;16.274;2023-08-17T10:10:54;27.50;99.90
36442;DHT22;64346;50.820;16.274;2023-08-17T10:18:50;27.90;99.90
36442;DHT22;64346;50.820;16.274;2023-08-17T10:21:32;28.00;99.90
36442;DHT22;64346;50.820;16.274;2023-08-17T10:24:03;28.00;99.90
36442;DHT22;64346;50.820;16.274;2023-08-17T10:26:33;28.10;99.90
36442;DHT22;64346;50.820;16.274;2023-08-17T10:29:02;28.20;99.90
36442;DHT22;64346;50.820;16.274;2023-08-17T10:31:40;28.40;99.90
36442;DHT22;64346;50.820;16.274;2023-08-17T10:34:12;28.40;99.90
36442;DHT22;64346;50.820;16.274;2023-08-17T10:36:41;28.60;99.90
36442;DHT22;64346;50.820;16.274;2023-08-17T10:39:26;28.70;99.90
36442;DHT22;64346;50.820;16.274;2023-08-17T10:41:57;28.70;99.90
36442;DHT22;64346;50.820;16.274;2023-08-17T10:44:38;28.70;99.90
36442;DHT22;64346;50.820;16.274;2023-08-17T10:47:26;28.70;99.90
36442;DHT22;64346;50.820;16.274;2023-08-17T10:50:05;28.90;99.90
36442;DHT22;64346;50.820;16.274;2023-08-17T10:52:35;29.00;99.90
36442;DHT22;64346;50.820;16.274;2023-08-17T10:55:05;29.10;99.90
36442;DHT22;64346;50.820;16.274;2023-08-17T10:57:37;29.20;99.90
36442;DHT22;64346;50.820;16.274;2023-08-17T11:00:13;29.20;99.90
36442;DHT22;64346;50.820;16.274;2023-08-17T11:02:59;29.20;99.90
36442;DHT22;64346;50.820;16.274;2023-08-17T11:05:45;29.00;99.90
36442;DHT22;64346;50.820;16.274;2023-08-17T11:08:23;28.90;99.90
36442;DHT22;64346;50.820;16.274;2023-08-17T11:11:02;28.90;99.90
36442;DHT22;64346;50.820;16.274;2023-08-17T11:13:34;28.90;99.90
36442;DHT22;64346;50.820;16.274;2023-08-17T11:16:05;28.90;99.90
36442;DHT22;64346;50.820;16.274;2023-08-17T11:18:36;28.80;99.90
36442;DHT22;64346;50.820;16.274;2023-08-17T11:21:06;28.70;99.90
36442;DHT22;64346;50.820;16.274;2023-08-17T11:23:35;28.60;99.90
36442;DHT22;64346;50.820;16.274;2023-08-17T11:26:04;28.50;99.90
36442;DHT22;64346;50.820;16.274;2023-08-17T11:28:34;28.40;99.90
36442;DHT22;64346;50.820;16.274;2023-08-17T11:31:10;28.30;99.90
36442;DHT22;64346;50.820;16.274;2023-08-17T11:33:41;28.40;99.90
36442;DHT22;64346;50.820;16.274;2023-08-17T11:36:11;28.70;99.90
36442;DHT22;64346;50.820;16.274;2023-08-17T11:38:42;29.10;99.90
36442;DHT22;64346;50.820;16.274;2023-08-17T11:41:13;29.40;99.90
36442;DHT22;64346;50.820;16.274;2023-08-17T11:43:43;29.50;99.90
36442;DHT22;64346;50.820;16.274;2023-08-17T11:46:12;29.50;99.90
36442;DHT22;64346;50.820;16.274;2023-08-17T11:48:40;29.70;99.90
36442;DHT22;64346;50.820;16.274;2023-08-17T11:51:09;29.80;99.90
36442;DHT22;64346;50.820;16.274;2023-08-17T11:53:37;29.80;99.90
36442;DHT22;64346;50.820;16.274;2023-08-17T11:56:04;29.70;99.90
36442;DHT22;64346;50.820;16.274;2023-08-17T11:58:42;29.70;99.90
36442;DHT22;64346;50.820;16.274;2023-08-17T12:01:13;29.60;99.90
36442;DHT22;64346;50.820;16.274;2023-08-17T12:03:41;29.50;99.90
36442;DHT22;64346;50.820;16.274;2023-08-17T12:06:09;29.40;99.90
36442;DHT22;64346;50.820;16.274;2023-08-17T12:08:37;29.30;99.90
36442;DHT22;64346;50.820;16.274;2023-08-17T12:11:04;29.30;99.90
36442;DHT22;64346;50.820;16.274;2023-08-17T12:13:35;29.20;99.90
36442;DHT22;64346;50.820;16.274;2023-08-17T12:16:02;29.20;99.90
36442;DHT22;64346;50.820;16.274;2023-08-17T12:18:34;29.10;99.90
36442;DHT22;64346;50.820;16.274;2023-08-17T12:21:03;29.10;99.90
36442;DHT22;64346;50.820;16.274;2023-08-17T12:23:34;29.10;99.90
36442;DHT22;64346;50.820;16.274;2023-08-17T12:26:02;29.10;99.90
36442;DHT22;64346;50.820;16.274;2023-08-17T12:28:30;29.10;99.90
36442;DHT22;64346;50.820;16.274;2023-08-17T12:31:01;29.10;99.90
36442;DHT22;64346;50.820;16.274;2023-08-17T12:33:29;29.00;99.90
36442;DHT22;64346;50.820;16.274;2023-08-17T12:35:58;28.90;99.90
36442;DHT22;64346;50.820;16.274;2023-08-17T12:38:26;28.80;99.90
36442;DHT22;64346;50.820;16.274;2023-08-17T12:40:53;28.50;99.90
36442;DHT22;64346;50.820;16.274;2023-08-17T12:43:21;28.40;99.90
36442;DHT22;64346;50.820;16.274;2023-08-17T12:45:48;28.30;99.90
36442;DHT22;64346;50.820;16.274;2023-08-17T12:48:18;28.20;99.90
36442;DHT22;64346;50.820;16.274;2023-08-17T12:50:47;28.20;99.90
36442;DHT22;64346;50.820;16.274;2023-08-17T12:53:17;28.10;99.90
36442;DHT22;64346;50.820;16.274;2023-08-17T12:55:45;28.00;99.90
36442;DHT22;64346;50.820;16.274;2023-08-17T12:58:12;28.00;99.90
36442;DHT22;64346;50.820;16.274;2023-08-17T13:00:39;28.00;99.90
36442;DHT22;64346;50.820;16.274;2023-08-17T13:03:09;27.90;99.90
36442;DHT22;64346;50.820;16.274;2023-08-17T13:05:39;27.90;99.90
36442;DHT22;64346;50.820;16.274;2023-08-17T13:08:06;27.80;99.90
36442;DHT22;64346;50.820;16.274;2023-08-17T13:10:36;27.80;99.90
36442;DHT22;64346;50.820;16.274;2023-08-17T13:13:04;27.70;99.90
36442;DHT22;64346;50.820;16.274;2023-08-17T13:15:33;27.60;99.90
36442;DHT22;64346;50.820;16.274;2023-08-17T13:18:01;27.50;99.90
36442;DHT22;64346;50.820;16.274;2023-08-17T13:20:30;27.40;99.90
36442;DHT22;64346;50.820;16.274;2023-08-17T13:22:58;27.30;99.90
36442;DHT22;64346;50.820;16.274;2023-08-17T13:25:25;27.30;99.90
36442;DHT22;64346;50.820;16.274;2023-08-17T13:27:53;27.20;99.90
36442;DHT22;64346;50.820;16.274;2023-08-17T13:30:20;27.10;99.90
36442;DHT22;64346;50.820;16.274;2023-08-17T13:32:50;27.10;99.90
36442;DHT22;64346;50.820;16.274;2023-08-17T13:35:20;27.10;99.90
36442;DHT22;64346;50.820;16.274;2023-08-17T13:37:51;27.10;99.90
36442;DHT22;64346;50.820;16.274;2023-08-17T13:40:21;27.10;99.90
36442;DHT22;64346;50.820;16.274;2023-08-17T13:42:49;27.10;99.90
36442;DHT22;64346;50.820;16.274;2023-08-17T13:45:16;27.10;99.90
36442;DHT22;64346;50.820;16.274;2023-08-17T13:47:44;27.10;99.90
36442;DHT22;64346;50.820;16.274;2023-08-17T13:50:11;27.20;99.90
36442;DHT22;64346;50.820;16.274;2023-08-17T13:52:42;27.20;99.90
36442;DHT22;64346;50.820;16.274;2023-08-17T13:55:09;27.30;99.90
36442;DHT22;64346;50.820;16.274;2023-08-17T13:57:36;27.30;99.90
36442;DHT22;64346;50.820;16.274;2023-08-17T14:00:04;27.40;99.90
36442;DHT22;64346;50.820;16.274;2023-08-17T14:02:35;27.40;99.90
36442;DHT22;64346;50.820;16.274;2023-08-17T14:05:03;27.50;99.90
36442;DHT22;64346;50.820;16.274;2023-08-17T14:07:31;27.30;99.90
36442;DHT22;64346;50.820;16.274;2023-08-17T14:09:58;27.30;99.90
36442;DHT22;64346;50.820;16.274;2023-08-17T14:12:37;27.10;99.90
36442;DHT22;64346;50.820;16.274;2023-08-17T14:15:07;26.90;99.90
36442;DHT22;64346;50.820;16.274;2023-08-17T14:17:35;26.90;99.90
36442;DHT22;64346;50.820;16.274;2023-08-17T14:20:02;26.90;99.90
36442;DHT22;64346;50.820;16.274;2023-08-17T14:22:29;26.80;99.90
36442;DHT22;64346;50.820;16.274;2023-08-17T14:24:57;26.80;99.90
36442;DHT22;64346;50.820;16.274;2023-08-17T14:27:26;26.80;99.90
36442;DHT22;64346;50.820;16.274;2023-08-17T14:29:53;26.80;99.90
36442;DHT22;64346;50.820;16.274;2023-08-17T14:32:23;26.80;99.90
36442;DHT22;64346;50.820;16.274;2023-08-17T14:34:51;26.80;99.90
36442;DHT22;64346;50.820;16.274;2023-08-17T14:37:18;26.70;99.90
36442;DHT22;64346;50.820;16.274;2023-08-17T14:39:53;26.70;99.90
36442;DHT22;64346;50.820;16.274;2023-08-17T14:42:21;26.60;99.90
36442;DHT22;64346;50.820;16.274;2023-08-17T14:44:48;26.60;99.90
36442;DHT22;64346;50.820;16.274;2023-08-17T14:47:16;26.60;99.90
36442;DHT22;64346;50.820;16.274;2023-08-17T14:49:47;26.60;99.90
36442;DHT22;64346;50.820;16.274;2023-08-17T14:52:14;26.50;99.90
36442;DHT22;64346;50.820;16.274;2023-08-17T14:54:44;26.40;99.90
36442;DHT22;64346;50.820;16.274;2023-08-17T14:57:14;26.40;99.90
36442;DHT22;64346;50.820;16.274;2023-08-17T14:59:44;26.30;99.90
36442;DHT22;64346;50.820;16.274;2023-08-17T15:02:12;26.30;99.90
36442;DHT22;64346;50.820;16.274;2023-08-17T15:04:39;26.20;99.90
36442;DHT22;64346;50.820;16.274;2023-08-17T15:07:07;26.20;99.90
36442;DHT22;64346;50.820;16.274;2023-08-17T15:09:34;26.10;99.90
36442;DHT22;64346;50.820;16.274;2023-08-17T15:12:02;26.00;99.90
36442;DHT22;64346;50.820;16.274;2023-08-17T15:14:35;25.90;99.90
36442;DHT22;64346;50.820;16.274;2023-08-17T15:17:02;25.90;99.90
36442;DHT22;64346;50.820;16.274;2023-08-17T15:19:29;25.80;99.90
36442;DHT22;64346;50.820;16.274;2023-08-17T15:22:04;25.80;99.90
36442;DHT22;64346;50.820;16.274;2023-08-17T15:24:34;26.00;99.90
36442;DHT22;64346;50.820;16.274;2023-08-17T15:27:01;26.20;99.90
36442;DHT22;64346;50.820;16.274;2023-08-17T15:29:28;26.40;99.90
36442;DHT22;64346;50.820;16.274;2023-08-17T15:31:58;26.70;99.90
36442;DHT22;64346;50.820;16.274;2023-08-17T15:34:26;26.70;99.90
36442;DHT22;64346;50.820;16.274;2023-08-17T15:36:53;26.70;99.90
36442;DHT22;64346;50.820;16.274;2023-08-17T15:39:20;26.80;99.90